sensor_id;sensor_type;location;lat;lon;timestamp;temperature;humidity
25188;DHT22;13141;50.414;8.050;2023-12-20T00:02:25;7.40;99.90
25188;DHT22;13141;50.414;8.050;2023-12-20T00:04:51;7.10;99.90
25188;DHT22;13141;50.414;8.050;2023-12-20T00:07:18;7.10;99.90
25188;DHT22;13141;50.414;8.050;2023-12-20T00:09:43;7.20;99.90
25188;DHT22;13141;50.414;8.050;2023-12-20T00:12:09;7.10;99.90
25188;DHT22;13141;50.414;8.050;2023-12-20T00:14:35;7.00;99.90
25188;DHT22;13141;50.414;8.050;2023-12-20T00:17:01;7.20;99.90
25188;DHT22;13141;50.414;8.050;2023-12-20T00:19:27;7.20;99.90
25188;DHT22;13141;50.414;8.050;2023-12-20T00:21:52;7.20;99.90
25188;DHT22;13141;50.414;8.050;2023-12-20T00:24:19;7.20;99.90
25188;DHT22;13141;50.414;8.050;2023-12-20T00:26:45;7.40;99.90
25188;DHT22;13141;50.414;8.050;2023-12-20T00:29:11;7.40;99.90
25188;DHT22;13141;50.414;8.050;2023-12-20T00:31:36;7.30;99.90
25188;DHT22;13141;50.414;8.050;2023-12-20T00:34:02;7.40;99.90
25188;DHT22;13141;50.414;8.050;2023-12-20T00:36:28;7.50;99.90
25188;DHT22;13141;50.414;8.050;2023-12-20T00:38:54;7.30;99.90
25188;DHT22;13141;50.414;8.050;2023-12-20T00:41:21;7.30;99.90
25188;DHT22;13141;50.414;8.050;2023-12-20T00:43:46;7.30;99.90
25188;DHT22;13141;50.414;8.050;2023-12-20T00:46:12;7.30;99.90
25188;DHT22;13141;50.414;8.050;2023-12-20T00:48:40;7.20;99.90
25188;DHT22;13141;50.414;8.050;2023-12-20T00:51:06;7.20;99.90
25188;DHT22;13141;50.414;8.050;2023-12-20T00:53:32;7.10;99.90
25188;DHT22;13141;50.414;8.050;2023-12-20T00:55:57;7.00;99.90
25188;DHT22;13141;50.414;8.050;2023-12-20T00:58:24;6.90;99.90
25188;DHT22;13141;50.414;8.050;2023-12-20T01:00:50;6.90;99.90
25188;DHT22;13141;50.414;8.050;2023-12-20T01:03:16;6.90;99.90
25188;DHT22;13141;50.414;8.050;2023-12-20T01:05:41;7.30;99.90
25188;DHT22;13141;50.414;8.050;2023-12-20T01:08:07;6.90;99.90
25188;DHT22;13141;50.414;8.050;2023-12-20T01:10:33;7.00;99.90
25188;DHT22;13141;50.414;8.050;2023-12-20T01:12:58;7.10;99.90
25188;DHT22;13141;50.414;8.050;2023-12-20T01:15:25;7.10;99.90
25188;DHT22;13141;50.414;8.050;2023-12-20T01:17:51;7.10;99.90
25188;DHT22;13141;50.414;8.050;2023-12-20T01:20:17;7.00;99.90
25188;DHT22;13141;50.414;8.050;2023-12-20T01:22:43;6.90;99.90
25188;DHT22;13141;50.414;8.050;2023-12-20T01:25:08;6.90;99.90
25188;DHT22;13141;50.414;8.050;2023-12-20T01:27:34;6.80;99.90
25188;DHT22;13141;50.414;8.050;2023-12-20T01:30:00;6.80;99.90
25188;DHT22;13141;50.414;8.050;2023-12-20T01:32:27;6.80;99.90
25188;DHT22;13141;50.414;8.050;2023-12-20T01:34:52;6.80;99.90
25188;DHT22;13141;50.414;8.050;2023-12-20T01:37:18;6.90;99.90
25188;DHT22;13141;50.414;8.050;2023-12-20T01:39:44;6.80;99.90
25188;DHT22;13141;50.414;8.050;2023-12-20T01:42:09;6.80;99.90
25188;DHT22;13141;50.414;8.050;2023-12-20T01:44:35;7.00;99.90
25188;DHT22;13141;50.414;8.050;2023-12-20T01:47:01;6.70;99.90
25188;DHT22;13141;50.414;8.050;2023-12-20T01:49:28;6.70;99.90
25188;DHT22;13141;50.414;8.050;2023-12-20T01:51:54;6.60;99.90
25188;DHT22;13141;50.414;8.050;2023-12-20T01:54:23;6.60;99.90
25188;DHT22;13141;50.414;8.050;2023-12-20T01:56:49;6.70;99.90
25188;DHT22;13141;50.414;8.050;2023-12-20T01:59:15;6.60;99.90
25188;DHT22;13141;50.414;8.050;2023-12-20T02:01:42;6.80;99.90
25188;DHT22;13141;50.414;8.050;2023-12-20T02:04:07;6.70;99.90
25188;DHT22;13141;50.414;8.050;2023-12-20T02:06:34;6.80;99.90
25188;DHT22;13141;50.414;8.050;2023-12-20T02:09:01;6.80;99.90
25188;DHT22;13141;50.414;8.050;2023-12-20T02:11:27;6.70;99.90
25188;DHT22;13141;50.414;8.050;2023-12-20T02:13:53;6.80;99.90
25188;DHT22;13141;50.414;8.050;2023-12-20T02:16:19;6.80;99.90
25188;DHT22;13141;50.414;8.050;2023-12-20T02:18:45;6.80;99.90
25188;DHT22;13141;50.414;8.050;2023-12-20T02:21:10;6.90;99.90
25188;DHT22;13141;50.414;8.050;2023-12-20T02:23:38;6.80;99.90
25188;DHT22;13141;50.414;8.050;2023-12-20T02:26:04;6.90;99.90
25188;DHT22;13141;50.414;8.050;2023-12-20T02:28:31;7.00;99.90
25188;DHT22;13141;50.414;8.050;2023-12-20T02:30:57;6.90;99.90
25188;DHT22;13141;50.414;8.050;2023-12-20T02:33:22;7.10;99.90
25188;DHT22;13141;50.414;8.050;2023-12-20T02:35:48;6.90;99.90
25188;DHT22;13141;50.414;8.050;2023-12-20T02:38:14;6.90;99.90
25188;DHT22;13141;50.414;8.050;2023-12-20T02:40:41;6.90;99.90
25188;DHT22;13141;50.414;8.050;2023-12-20T02:43:06;7.00;99.90
25188;DHT22;13141;50.414;8.050;2023-12-20T02:45:32;7.00;99.90
25188;DHT22;13141;50.414;8.050;2023-12-20T02:48:02;7.00;99.90
25188;DHT22;13141;50.414;8.050;2023-12-20T02:50:28;7.00;99.90
25188;DHT22;13141;50.414;8.050;2023-12-20T02:52:53;6.70;99.90
25188;DHT22;13141;50.414;8.050;2023-12-20T02:55:19;7.10;99.90
25188;DHT22;13141;50.414;8.050;2023-12-20T02:57:46;7.10;99.90
25188;DHT22;13141;50.414;8.050;2023-12-20T03:00:13;7.20;99.90
25188;DHT22;13141;50.414;8.050;2023-12-20T03:02:38;7.20;99.90
25188;DHT22;13141;50.414;8.050;2023-12-20T03:05:07;7.30;99.90
25188;DHT22;13141;50.414;8.050;2023-12-20T03:07:33;7.30;99.90
25188;DHT22;13141;50.414;8.050;2023-12-20T03:09:58;7.40;99.90
25188;DHT22;13141;50.414;8.050;2023-12-20T03:12:24;7.10;99.90
25188;DHT22;13141;50.414;8.050;2023-12-20T03:14:51;7.40;99.90
25188;DHT22;13141;50.414;8.050;2023-12-20T03:17:17;7.60;99.90
25188;DHT22;13141;50.414;8.050;2023-12-20T03:19:43;7.40;99.90
25188;DHT22;13141;50.414;8.050;2023-12-20T03:22:08;7.40;99.90
25188;DHT22;13141;50.414;8.050;2023-12-20T03:24:34;7.40;99.90
25188;DHT22;13141;50.414;8.050;2023-12-20T03:27:00;7.50;99.90
25188;DHT22;13141;50.414;8.050;2023-12-20T03:29:25;7.50;99.90
25188;DHT22;13141;50.414;8.050;2023-12-20T03:31:52;7.60;99.90
25188;DHT22;13141;50.414;8.050;2023-12-20T03:34:18;7.70;99.90
25188;DHT22;13141;50.414;8.050;2023-12-20T03:36:44;7.60;99.90
25188;DHT22;13141;50.414;8.050;2023-12-20T03:39:09;7.40;99.90
25188;DHT22;13141;50.414;8.050;2023-12-20T03:41:35;7.40;99.90
25188;DHT22;13141;50.414;8.050;2023-12-20T03:44:01;7.40;99.90
25188;DHT22;13141;50.414;8.050;2023-12-20T03:46:26;7.50;99.90
25188;DHT22;13141;50.414;8.050;2023-12-20T03:48:53;7.50;99.90
25188;DHT22;13141;50.414;8.050;2023-12-20T03:51:19;7.50;99.90
25188;DHT22;13141;50.414;8.050;2023-12-20T03:53:45;7.50;99.90
25188;DHT22;13141;50.414;8.050;2023-12-20T03:56:10;7.50;99.90
25188;DHT22;13141;50.414;8.050;2023-12-20T03:58:36;7.50;99.90
25188;DHT22;13141;50.414;8.050;2023-12-20T04:01:09;7.50;99.90
25188;DHT22;13141;50.414;8.050;2023-12-20T04:03:35;7.50;99.90
25188;DHT22;13141;50.414;8.050;2023-12-20T04:06:05;7.40;99.90
25188;DHT22;13141;50.414;8.050;2023-12-20T04:08:31;7.40;99.90
25188;DHT22;13141;50.414;8.050;2023-12-20T04:10:56;7.30;99.90
25188;DHT22;13141;50.414;8.050;2023-12-20T04:13:22;7.30;99.90
25188;DHT22;13141;50.414;8.050;2023-12-20T04:15:48;7.20;99.90
25188;DHT22;13141;50.414;8.050;2023-12-20T04:18:14;7.20;99.90
25188;DHT22;13141;50.414;8.050;2023-12-20T04:20:39;7.10;99.90
25188;DHT22;13141;50.414;8.050;2023-12-20T04:23:09;7.10;99.90
25188;DHT22;13141;50.414;8.050;2023-12-20T04:25:34;6.70;99.90
25188;DHT22;13141;50.414;8.050;2023-12-20T04:28:04;7.00;99.90
25188;DHT22;13141;50.414;8.050;2023-12-20T04:30:29;7.00;99.90
25188;DHT22;13141;50.414;8.050;2023-12-20T04:32:55;6.60;99.90
25188;DHT22;13141;50.414;8.050;2023-12-20T04:35:21;7.00;99.90
25188;DHT22;13141;50.414;8.050;2023-12-20T04:37:52;6.90;99.90
25188;DHT22;13141;50.414;8.050;2023-12-20T04:40:21;7.00;99.90
25188;DHT22;13141;50.414;8.050;2023-12-20T04:42:47;7.00;99.90
25188;DHT22;13141;50.414;8.050;2023-12-20T04:45:13;7.00;99.90
25188;DHT22;13141;50.414;8.050;2023-12-20T04:47:38;7.00;99.90
25188;DHT22;13141;50.414;8.050;2023-12-20T04:50:05;6.90;99.90
25188;DHT22;13141;50.414;8.050;2023-12-20T04:52:31;6.90;99.90
25188;DHT22;13141;50.414;8.050;2023-12-20T04:55:00;6.90;99.90
25188;DHT22;13141;50.414;8.050;2023-12-20T04:57:27;6.60;99.90
25188;DHT22;13141;50.414;8.050;2023-12-20T04:59:55;6.90;99.90
25188;DHT22;13141;50.414;8.050;2023-12-20T05:02:24;6.90;99.90
25188;DHT22;13141;50.414;8.050;2023-12-20T05:04:49;6.90;99.90
25188;DHT22;13141;50.414;8.050;2023-12-20T05:07:15;7.10;99.90
25188;DHT22;13141;50.414;8.050;2023-12-20T05:09:41;6.80;99.90
25188;DHT22;13141;50.414;8.050;2023-12-20T05:12:10;6.80;99.90
25188;DHT22;13141;50.414;8.050;2023-12-20T05:14:37;6.80;99.90
25188;DHT22;13141;50.414;8.050;2023-12-20T05:17:03;6.90;99.90
25188;DHT22;13141;50.414;8.050;2023-12-20T05:19:31;6.70;99.90
25188;DHT22;13141;50.414;8.050;2023-12-20T05:21:57;6.90;99.90
25188;DHT22;13141;50.414;8.050;2023-12-20T05:24:22;6.70;99.90
25188;DHT22;13141;50.414;8.050;2023-12-20T05:26:48;6.70;99.90
25188;DHT22;13141;50.414;8.050;2023-12-20T05:29:14;6.70;99.90
25188;DHT22;13141;50.414;8.050;2023-12-20T05:31:41;6.70;99.90
25188;DHT22;13141;50.414;8.050;2023-12-20T05:34:06;6.70;99.90
25188;DHT22;13141;50.414;8.050;2023-12-20T05:36:32;6.70;99.90
25188;DHT22;13141;50.414;8.050;2023-12-20T05:38:58;6.70;99.90
25188;DHT22;13141;50.414;8.050;2023-12-20T05:41:24;6.70;99.90
25188;DHT22;13141;50.414;8.050;2023-12-20T05:43:50;6.90;99.90
25188;DHT22;13141;50.414;8.050;2023-12-20T05:46:15;6.60;99.90
25188;DHT22;13141;50.414;8.050;2023-12-20T05:48:42;6.50;99.90
25188;DHT22;13141;50.414;8.050;2023-12-20T05:51:11;6.80;99.90
25188;DHT22;13141;50.414;8.050;2023-12-20T05:53:37;6.50;99.90
25188;DHT22;13141;50.414;8.050;2023-12-20T05:56:04;6.50;99.90
25188;DHT22;13141;50.414;8.050;2023-12-20T05:58:30;6.60;99.90
25188;DHT22;13141;50.414;8.050;2023-12-20T06:00:55;6.60;99.90
25188;DHT22;13141;50.414;8.050;2023-12-20T06:03:21;6.60;99.90
25188;DHT22;13141;50.414;8.050;2023-12-20T06:05:48;6.70;99.90
25188;DHT22;13141;50.414;8.050;2023-12-20T06:08:14;6.60;99.90
25188;DHT22;13141;50.414;8.050;2023-12-20T06:10:40;6.60;99.90
25188;DHT22;13141;50.414;8.050;2023-12-20T06:13:05;6.60;99.90
25188;DHT22;13141;50.414;8.050;2023-12-20T06:15:31;6.80;99.90
25188;DHT22;13141;50.414;8.050;2023-12-20T06:17:57;6.50;99.90
25188;DHT22;13141;50.414;8.050;2023-12-20T06:20:23;6.60;99.90
25188;DHT22;13141;50.414;8.050;2023-12-20T06:22:50;6.60;99.90
25188;DHT22;13141;50.414;8.050;2023-12-20T06:25:22;6.80;99.90
25188;DHT22;13141;50.414;8.050;2023-12-20T06:27:51;6.70;99.90
25188;DHT22;13141;50.414;8.050;2023-12-20T06:30:17;6.70;99.90
25188;DHT22;13141;50.414;8.050;2023-12-20T06:32:43;6.60;99.90
25188;DHT22;13141;50.414;8.050;2023-12-20T06:35:09;6.80;99.90
25188;DHT22;13141;50.414;8.050;2023-12-20T06:37:34;6.80;99.90
25188;DHT22;13141;50.414;8.050;2023-12-20T06:40:02;6.80;99.90
25188;DHT22;13141;50.414;8.050;2023-12-20T06:42:27;6.80;99.90
25188;DHT22;13141;50.414;8.050;2023-12-20T06:44:53;6.80;99.90
25188;DHT22;13141;50.414;8.050;2023-12-20T06:47:19;6.80;99.90
25188;DHT22;13141;50.414;8.050;2023-12-20T06:49:44;6.70;99.90
25188;DHT22;13141;50.414;8.050;2023-12-20T06:52:10;6.70;99.90
25188;DHT22;13141;50.414;8.050;2023-12-20T06:54:36;6.60;99.90
25188;DHT22;13141;50.414;8.050;2023-12-20T06:57:03;6.80;99.90
25188;DHT22;13141;50.414;8.050;2023-12-20T06:59:29;6.60;99.90
25188;DHT22;13141;50.414;8.050;2023-12-20T07:01:55;6.60;99.90
25188;DHT22;13141;50.414;8.050;2023-12-20T07:04:21;6.60;99.90
25188;DHT22;13141;50.414;8.050;2023-12-20T07:06:47;6.70;99.90
25188;DHT22;13141;50.414;8.050;2023-12-20T07:09:13;6.70;99.90
25188;DHT22;13141;50.414;8.050;2023-12-20T07:11:39;6.50;99.90
25188;DHT22;13141;50.414;8.050;2023-12-20T07:14:06;6.60;99.90
25188;DHT22;13141;50.414;8.050;2023-12-20T07:16:31;6.50;99.90
25188;DHT22;13141;50.414;8.050;2023-12-20T07:19:00;6.50;99.90
25188;DHT22;13141;50.414;8.050;2023-12-20T07:21:29;6.50;99.90
25188;DHT22;13141;50.414;8.050;2023-12-20T07:23:55;6.20;99.90
25188;DHT22;13141;50.414;8.050;2023-12-20T07:26:20;6.50;99.90
25188;DHT22;13141;50.414;8.050;2023-12-20T07:28:49;6.40;99.90
25188;DHT22;13141;50.414;8.050;2023-12-20T07:31:16;5.90;99.90
25188;DHT22;13141;50.414;8.050;2023-12-20T07:33:42;6.40;99.90
25188;DHT22;13141;50.414;8.050;2023-12-20T07:36:08;6.40;99.90
25188;DHT22;13141;50.414;8.050;2023-12-20T07:38:38;6.00;99.90
25188;DHT22;13141;50.414;8.050;2023-12-20T07:41:04;6.40;99.90
25188;DHT22;13141;50.414;8.050;2023-12-20T07:43:30;6.70;99.90
25188;DHT22;13141;50.414;8.050;2023-12-20T07:45:56;6.70;99.90
25188;DHT22;13141;50.414;8.050;2023-12-20T07:48:23;6.40;99.90
25188;DHT22;13141;50.414;8.050;2023-12-20T07:50:49;6.60;99.90
25188;DHT22;13141;50.414;8.050;2023-12-20T07:53:14;6.60;99.90
25188;DHT22;13141;50.414;8.050;2023-12-20T07:55:40;6.60;99.90
25188;DHT22;13141;50.414;8.050;2023-12-20T07:58:06;6.60;99.90
25188;DHT22;13141;50.414;8.050;2023-12-20T08:00:37;6.60;99.90
25188;DHT22;13141;50.414;8.050;2023-12-20T08:03:03;6.70;99.90
25188;DHT22;13141;50.414;8.050;2023-12-20T08:05:30;6.70;99.90
25188;DHT22;13141;50.414;8.050;2023-12-20T08:07:56;6.70;99.90
25188;DHT22;13141;50.414;8.050;2023-12-20T08:10:22;6.80;99.90
25188;DHT22;13141;50.414;8.050;2023-12-20T08:12:48;6.80;99.90
25188;DHT22;13141;50.414;8.050;2023-12-20T08:15:13;6.70;99.90
25188;DHT22;13141;50.414;8.050;2023-12-20T08:17:39;6.60;99.90
25188;DHT22;13141;50.414;8.050;2023-12-20T08:20:06;6.90;99.90
25188;DHT22;13141;50.414;8.050;2023-12-20T08:22:36;6.70;99.90
25188;DHT22;13141;50.414;8.050;2023-12-20T08:25:03;6.80;99.90
25188;DHT22;13141;50.414;8.050;2023-12-20T08:27:30;6.70;99.90
25188;DHT22;13141;50.414;8.050;2023-12-20T08:29:56;6.70;99.90
25188;DHT22;13141;50.414;8.050;2023-12-20T08:32:23;6.60;99.90
25188;DHT22;13141;50.414;8.050;2023-12-20T08:34:50;6.70;99.90
25188;DHT22;13141;50.414;8.050;2023-12-20T08:37:15;6.90;99.90
25188;DHT22;13141;50.414;8.050;2023-12-20T08:39:45;6.70;99.90
25188;DHT22;13141;50.414;8.050;2023-12-20T08:42:11;6.60;99.90
25188;DHT22;13141;50.414;8.050;2023-12-20T08:44:38;6.60;99.90
25188;DHT22;13141;50.414;8.050;2023-12-20T08:47:04;6.60;99.90
25188;DHT22;13141;50.414;8.050;2023-12-20T08:49:30;6.60;99.90
25188;DHT22;13141;50.414;8.050;2023-12-20T08:51:56;6.60;99.90
25188;DHT22;13141;50.414;8.050;2023-12-20T08:54:21;6.60;99.90
25188;DHT22;13141;50.414;8.050;2023-12-20T08:56:50;6.60;99.90
25188;DHT22;13141;50.414;8.050;2023-12-20T08:59:16;6.70;99.90
25188;DHT22;13141;50.414;8.050;2023-12-20T09:01:42;6.90;99.90
25188;DHT22;13141;50.414;8.050;2023-12-20T09:04:07;6.60;99.90
25188;DHT22;13141;50.414;8.050;2023-12-20T09:06:33;6.60;99.90
25188;DHT22;13141;50.414;8.050;2023-12-20T09:08:59;6.60;99.90
25188;DHT22;13141;50.414;8.050;2023-12-20T09:11:25;6.60;99.90
25188;DHT22;13141;50.414;8.050;2023-12-20T09:13:52;6.80;99.90
25188;DHT22;13141;50.414;8.050;2023-12-20T09:16:17;6.60;99.90
25188;DHT22;13141;50.414;8.050;2023-12-20T09:18:43;6.60;99.90
25188;DHT22;13141;50.414;8.050;2023-12-20T09:21:11;6.60;99.90
25188;DHT22;13141;50.414;8.050;2023-12-20T09:23:37;6.60;99.90
25188;DHT22;13141;50.414;8.050;2023-12-20T09:26:03;6.60;99.90
25188;DHT22;13141;50.414;8.050;2023-12-20T09:28:28;6.70;99.90
25188;DHT22;13141;50.414;8.050;2023-12-20T09:30:55;6.70;99.90
25188;DHT22;13141;50.414;8.050;2023-12-20T09:33:21;6.80;99.90
25188;DHT22;13141;50.414;8.050;2023-12-20T09:35:47;6.80;99.90
25188;DHT22;13141;50.414;8.050;2023-12-20T09:38:12;6.80;99.90
25188;DHT22;13141;50.414;8.050;2023-12-20T09:40:41;7.00;99.90
25188;DHT22;13141;50.414;8.050;2023-12-20T09:43:10;7.00;99.90
25188;DHT22;13141;50.414;8.050;2023-12-20T09:45:36;7.00;99.90
25188;DHT22;13141;50.414;8.050;2023-12-20T09:48:04;7.20;99.90
25188;DHT22;13141;50.414;8.050;2023-12-20T09:50:30;7.00;99.90
25188;DHT22;13141;50.414;8.050;2023-12-20T09:52:57;7.00;99.90
25188;DHT22;13141;50.414;8.050;2023-12-20T09:55:25;7.00;99.90
25188;DHT22;13141;50.414;8.050;2023-12-20T09:57:51;7.10;99.90
25188;DHT22;13141;50.414;8.050;2023-12-20T10:00:17;7.10;99.90
25188;DHT22;13141;50.414;8.050;2023-12-20T10:02:49;7.10;99.90
25188;DHT22;13141;50.414;8.050;2023-12-20T10:05:17;7.40;99.90
25188;DHT22;13141;50.414;8.050;2023-12-20T10:07:43;7.30;99.90
25188;DHT22;13141;50.414;8.050;2023-12-20T10:10:09;7.30;99.90
25188;DHT22;13141;50.414;8.050;2023-12-20T10:12:38;7.50;99.90
25188;DHT22;13141;50.414;8.050;2023-12-20T10:15:07;7.50;99.90
25188;DHT22;13141;50.414;8.050;2023-12-20T10:17:33;7.60;99.90
25188;DHT22;13141;50.414;8.050;2023-12-20T10:19:58;7.50;99.90
25188;DHT22;13141;50.414;8.050;2023-12-20T10:22:26;7.60;99.90
25188;DHT22;13141;50.414;8.050;2023-12-20T10:24:52;7.60;99.90
25188;DHT22;13141;50.414;8.050;2023-12-20T10:27:18;7.50;99.90
25188;DHT22;13141;50.414;8.050;2023-12-20T10:29:44;7.70;99.90
25188;DHT22;13141;50.414;8.050;2023-12-20T10:32:23;7.80;99.90
25188;DHT22;13141;50.414;8.050;2023-12-20T10:34:49;7.90;99.90
25188;DHT22;13141;50.414;8.050;2023-12-20T10:37:14;8.00;99.90
25188;DHT22;13141;50.414;8.050;2023-12-20T10:39:42;8.00;99.90
25188;DHT22;13141;50.414;8.050;2023-12-20T10:42:12;8.30;99.90
25188;DHT22;13141;50.414;8.050;2023-12-20T10:44:41;8.30;99.90
25188;DHT22;13141;50.414;8.050;2023-12-20T10:47:12;8.50;99.90
25188;DHT22;13141;50.414;8.050;2023-12-20T10:49:39;8.60;99.90
25188;DHT22;13141;50.414;8.050;2023-12-20T10:52:06;8.40;99.90
25188;DHT22;13141;50.414;8.050;2023-12-20T10:54:32;7.90;99.90
25188;DHT22;13141;50.414;8.050;2023-12-20T10:57:00;8.30;99.90
25188;DHT22;13141;50.414;8.050;2023-12-20T10:59:28;8.30;99.90
25188;DHT22;13141;50.414;8.050;2023-12-20T11:01:56;8.50;99.90
25188;DHT22;13141;50.414;8.050;2023-12-20T11:04:28;8.30;99.90
25188;DHT22;13141;50.414;8.050;2023-12-20T11:07:08;8.30;99.90
25188;DHT22;13141;50.414;8.050;2023-12-20T11:09:43;8.10;99.90
25188;DHT22;13141;50.414;8.050;2023-12-20T11:12:13;8.30;99.90
25188;DHT22;13141;50.414;8.050;2023-12-20T11:14:42;8.00;99.90
25188;DHT22;13141;50.414;8.050;2023-12-20T11:17:12;8.30;99.90
25188;DHT22;13141;50.414;8.050;2023-12-20T11:19:43;8.20;99.90
25188;DHT22;13141;50.414;8.050;2023-12-20T11:22:31;8.20;99.90
25188;DHT22;13141;50.414;8.050;2023-12-20T11:25:03;8.10;99.90
25188;DHT22;13141;50.414;8.050;2023-12-20T11:27:30;8.00;99.90
25188;DHT22;13141;50.414;8.050;2023-12-20T11:29:58;8.00;99.90
25188;DHT22;13141;50.414;8.050;2023-12-20T11:32:29;7.90;99.90
25188;DHT22;13141;50.414;8.050;2023-12-20T11:34:56;7.90;99.90
25188;DHT22;13141;50.414;8.050;2023-12-20T11:37:22;8.10;99.90
25188;DHT22;13141;50.414;8.050;2023-12-20T11:39:55;7.90;99.90
25188;DHT22;13141;50.414;8.050;2023-12-20T11:42:21;7.90;99.90
25188;DHT22;13141;50.414;8.050;2023-12-20T11:44:48;7.90;99.90
25188;DHT22;13141;50.414;8.050;2023-12-20T11:47:15;7.50;99.90
25188;DHT22;13141;50.414;8.050;2023-12-20T11:49:41;7.90;99.90
25188;DHT22;13141;50.414;8.050;2023-12-20T11:52:12;8.00;99.90
25188;DHT22;13141;50.414;8.050;2023-12-20T11:54:38;8.00;99.90
25188;DHT22;13141;50.414;8.050;2023-12-20T11:57:04;7.80;99.90
25188;DHT22;13141;50.414;8.050;2023-12-20T11:59:31;7.80;99.90
25188;DHT22;13141;50.414;8.050;2023-12-20T12:01:59;7.80;99.90
25188;DHT22;13141;50.414;8.050;2023-12-20T12:04:25;7.80;99.90
25188;DHT22;13141;50.414;8.050;2023-12-20T12:06:50;7.80;99.90
25188;DHT22;13141;50.414;8.050;2023-12-20T12:09:17;7.80;99.90
25188;DHT22;13141;50.414;8.050;2023-12-20T12:11:43;7.80;99.90
25188;DHT22;13141;50.414;8.050;2023-12-20T12:14:09;7.90;99.90
25188;DHT22;13141;50.414;8.050;2023-12-20T12:16:35;7.80;99.90
25188;DHT22;13141;50.414;8.050;2023-12-20T12:19:02;8.10;99.90
25188;DHT22;13141;50.414;8.050;2023-12-20T12:21:28;7.70;99.90
25188;DHT22;13141;50.414;8.050;2023-12-20T12:23:53;7.70;99.90
25188;DHT22;13141;50.414;8.050;2023-12-20T12:26:19;7.20;99.90
25188;DHT22;13141;50.414;8.050;2023-12-20T12:28:45;7.70;99.90
25188;DHT22;13141;50.414;8.050;2023-12-20T12:31:13;7.60;99.90
25188;DHT22;13141;50.414;8.050;2023-12-20T12:33:40;7.60;99.90
25188;DHT22;13141;50.414;8.050;2023-12-20T12:36:10;7.70;99.90
25188;DHT22;13141;50.414;8.050;2023-12-20T12:38:38;7.70;99.90
25188;DHT22;13141;50.414;8.050;2023-12-20T12:41:04;7.80;99.90
25188;DHT22;13141;50.414;8.050;2023-12-20T12:43:33;7.60;99.90
25188;DHT22;13141;50.414;8.050;2023-12-20T12:45:59;7.50;99.90
25188;DHT22;13141;50.414;8.050;2023-12-20T12:48:24;7.70;99.90
25188;DHT22;13141;50.414;8.050;2023-12-20T12:50:53;7.60;99.90
25188;DHT22;13141;50.414;8.050;2023-12-20T12:53:20;7.60;99.90
25188;DHT22;13141;50.414;8.050;2023-12-20T12:55:46;7.60;99.90
25188;DHT22;13141;50.414;8.050;2023-12-20T12:58:12;7.50;99.90
25188;DHT22;13141;50.414;8.050;2023-12-20T13:00:37;7.50;99.90
25188;DHT22;13141;50.414;8.050;2023-12-20T13:03:03;7.40;99.90
25188;DHT22;13141;50.414;8.050;2023-12-20T13:05:29;7.40;99.90
25188;DHT22;13141;50.414;8.050;2023-12-20T13:07:55;7.50;99.90
25188;DHT22;13141;50.414;8.050;2023-12-20T13:10:22;7.40;99.90
25188;DHT22;13141;50.414;8.050;2023-12-20T13:12:47;7.60;99.90
25188;DHT22;13141;50.414;8.050;2023-12-20T13:15:13;7.40;99.90
25188;DHT22;13141;50.414;8.050;2023-12-20T13:17:39;7.50;99.90
25188;DHT22;13141;50.414;8.050;2023-12-20T13:20:06;7.70;99.90
25188;DHT22;13141;50.414;8.050;2023-12-20T13:22:32;7.60;99.90
25188;DHT22;13141;50.414;8.050;2023-12-20T13:24:57;7.70;99.90
25188;DHT22;13141;50.414;8.050;2023-12-20T13:27:24;7.70;99.90
25188;DHT22;13141;50.414;8.050;2023-12-20T13:29:59;7.70;99.90
25188;DHT22;13141;50.414;8.050;2023-12-20T13:32:25;7.70;99.90
25188;DHT22;13141;50.414;8.050;2023-12-20T13:34:50;7.80;99.90
25188;DHT22;13141;50.414;8.050;2023-12-20T13:37:16;7.70;99.90
25188;DHT22;13141;50.414;8.050;2023-12-20T13:39:42;7.80;99.90
25188;DHT22;13141;50.414;8.050;2023-12-20T13:42:08;7.40;99.90
25188;DHT22;13141;50.414;8.050;2023-12-20T13:44:35;7.90;99.90
25188;DHT22;13141;50.414;8.050;2023-12-20T13:47:01;8.00;99.90
25188;DHT22;13141;50.414;8.050;2023-12-20T13:49:26;7.80;99.90
25188;DHT22;13141;50.414;8.050;2023-12-20T13:51:53;7.90;99.90
25188;DHT22;13141;50.414;8.050;2023-12-20T13:54:19;7.90;99.90
25188;DHT22;13141;50.414;8.050;2023-12-20T13:56:44;8.10;99.90
25188;DHT22;13141;50.414;8.050;2023-12-20T13:59:10;7.70;99.90
25188;DHT22;13141;50.414;8.050;2023-12-20T14:01:37;8.00;99.90
25188;DHT22;13141;50.414;8.050;2023-12-20T14:04:03;7.90;99.90
25188;DHT22;13141;50.414;8.050;2023-12-20T14:06:29;7.70;99.90
25188;DHT22;13141;50.414;8.050;2023-12-20T14:09:00;7.80;99.90
25188;DHT22;13141;50.414;8.050;2023-12-20T14:11:26;7.80;99.90
25188;DHT22;13141;50.414;8.050;2023-12-20T14:13:52;7.80;99.90
25188;DHT22;13141;50.414;8.050;2023-12-20T14:16:17;7.70;99.90
25188;DHT22;13141;50.414;8.050;2023-12-20T14:18:44;7.80;99.90
25188;DHT22;13141;50.414;8.050;2023-12-20T14:21:10;7.70;99.90
25188;DHT22;13141;50.414;8.050;2023-12-20T14:23:36;7.70;99.90
25188;DHT22;13141;50.414;8.050;2023-12-20T14:26:01;7.70;99.90
25188;DHT22;13141;50.414;8.050;2023-12-20T14:28:27;7.90;99.90
25188;DHT22;13141;50.414;8.050;2023-12-20T14:30:54;7.80;99.90
25188;DHT22;13141;50.414;8.050;2023-12-20T14:33:20;7.80;99.90
25188;DHT22;13141;50.414;8.050;2023-12-20T14:35:48;7.80;99.90
25188;DHT22;13141;50.414;8.050;2023-12-20T14:38:14;7.70;99.90
25188;DHT22;13141;50.414;8.050;2023-12-20T14:40:40;7.90;99.90
25188;DHT22;13141;50.414;8.050;2023-12-20T14:43:05;7.90;99.90
25188;DHT22;13141;50.414;8.050;2023-12-20T14:45:31;7.80;99.90
25188;DHT22;13141;50.414;8.050;2023-12-20T14:47:57;7.80;99.90
25188;DHT22;13141;50.414;8.050;2023-12-20T14:50:23;7.80;99.90
25188;DHT22;13141;50.414;8.050;2023-12-20T14:52:50;7.80;99.90
25188;DHT22;13141;50.414;8.050;2023-12-20T14:55:16;8.00;99.90
25188;DHT22;13141;50.414;8.050;2023-12-20T14:57:42;7.90;99.90
25188;DHT22;13141;50.414;8.050;2023-12-20T15:00:08;7.90;99.90
25188;DHT22;13141;50.414;8.050;2023-12-20T15:02:34;7.90;99.90
25188;DHT22;13141;50.414;8.050;2023-12-20T15:04:59;7.80;99.90
25188;DHT22;13141;50.414;8.050;2023-12-20T15:07:25;8.00;99.90
25188;DHT22;13141;50.414;8.050;2023-12-20T15:09:52;7.80;99.90
25188;DHT22;13141;50.414;8.050;2023-12-20T15:12:18;7.90;99.90
25188;DHT22;13141;50.414;8.050;2023-12-20T15:14:43;7.90;99.90
25188;DHT22;13141;50.414;8.050;2023-12-20T15:17:09;7.90;99.90
25188;DHT22;13141;50.414;8.050;2023-12-20T15:19:35;7.90;99.90
25188;DHT22;13141;50.414;8.050;2023-12-20T15:22:00;7.90;99.90
25188;DHT22;13141;50.414;8.050;2023-12-20T15:24:26;7.90;99.90
25188;DHT22;13141;50.414;8.050;2023-12-20T15:26:54;8.00;99.90
25188;DHT22;13141;50.414;8.050;2023-12-20T15:29:20;7.90;99.90
25188;DHT22;13141;50.414;8.050;2023-12-20T15:31:47;7.90;99.90
25188;DHT22;13141;50.414;8.050;2023-12-20T15:34:13;7.80;99.90
25188;DHT22;13141;50.414;8.050;2023-12-20T15:36:39;7.70;99.90
25188;DHT22;13141;50.414;8.050;2023-12-20T15:39:05;7.90;99.90
25188;DHT22;13141;50.414;8.050;2023-12-20T15:41:31;7.90;99.90